Union City, Tennessee
Current Conditions -  °F | °C
As of 11:15 PM on Friday 28 Nov 2014 (Local Time) from KUCY Reporting Station
Clear Clear  
Wind Chill: 34°   Ceiling: Unl
Heat Index: 39°   Visibility: 10mi
Dew Point: 28°   Wind: 7mph
Humidity: 65%   Direction: 190°S
Pressure: 30.05"   Gusts: NA
Location:  36.42°N, 89.06°W
Report Text: KUCY 290515Z AUTO 19006KT 10SM CLR 04/M02 A3005 RMK
Loading
Personal Weather Stations






























Interactive Weather Map New forecast layout! Learn more

10-Day Weather Forecast

Advertisements
Track Severe Weather on mobile